Time;durP1;ratioP1;P1;durP2;ratioP2;P2;SDS_P1;SDS_P2;PMS_P1;PMS_P2;Temp;Humidity;BMP_temperature;BMP_pressure;BME280_temperature;BME280_humidity;BME280_pressure;Samples;Min_cycle;Max_cycle;Signal;HPM_P1;HPM_P2
2023/11/22 00:00:48;;;;;;;13.83;12.53;;;10.60;99.90;;;;;;10317136;28;20242;-76
2023/11/22 00:05:51;;;;;;;13.43;12.00;;;10.60;99.90;;;;;;10321661;28;20203;-76
2023/11/22 00:10:53;;;;;;;9.80;8.87;;;10.50;99.90;;;;;;10321684;28;20231;-76
2023/11/22 00:15:57;;;;;;;7.53;6.77;;;10.50;99.90;;;;;;10324325;28;20234;-76
2023/11/22 00:20:59;;;;;;;7.03;6.63;;;10.30;99.90;;;;;;10323266;28;20652;-76
2023/11/22 00:26:02;;;;;;;7.10;6.70;;;10.00;99.90;;;;;;10323597;28;20222;-76
2023/11/22 00:31:06;;;;;;;7.37;6.97;;;9.80;99.90;;;;;;10324017;28;20230;-76
2023/11/22 00:36:09;;;;;;;6.83;6.43;;;9.60;99.90;;;;;;10324547;28;20206;-76
2023/11/22 00:41:11;;;;;;;7.00;6.60;;;9.50;99.90;;;;;;10325374;28;20754;-76
2023/11/22 00:46:15;;;;;;;7.93;7.43;;;9.40;99.90;;;;;;10327169;28;20208;-76
2023/11/22 00:51:18;;;;;;;8.20;7.50;;;9.20;99.90;;;;;;10325996;28;20803;-76
2023/11/22 00:56:21;;;;;;;8.93;8.33;;;9.20;99.90;;;;;;10326162;28;20204;-76
2023/11/22 01:01:24;;;;;;;10.10;9.20;;;9.10;99.90;;;;;;10309959;28;20224;-77
2023/11/22 01:06:27;;;;;;;9.80;8.97;;;9.10;99.90;;;;;;10302505;28;20739;-76
2023/11/22 01:11:29;;;;;;;9.87;9.17;;;9.00;99.90;;;;;;10328116;28;20239;-76
2023/11/22 01:16:33;;;;;;;9.67;8.93;;;9.00;99.90;;;;;;10328596;28;20203;-76
2023/11/22 01:21:35;;;;;;;9.63;8.90;;;8.90;99.90;;;;;;10329132;28;20239;-76
2023/11/22 01:26:38;;;;;;;9.40;8.70;;;8.90;99.90;;;;;;10329386;28;20270;-76
2023/11/22 01:31:43;;;;;;;9.50;8.80;;;8.80;99.90;;;;;;10346569;23;20297;-76
2023/11/22 01:36:46;;;;;;;9.10;8.40;;;8.70;99.90;;;;;;10310038;28;20257;-77
2023/11/22 01:41:49;;;;;;;8.57;7.87;;;8.70;99.90;;;;;;10296272;28;20232;-77
2023/11/22 01:46:53;;;;;;;9.33;8.43;;;8.70;99.90;;;;;;10285375;28;20254;-77
2023/11/22 01:51:56;;;;;;;9.07;8.37;;;8.70;99.90;;;;;;10298876;28;20235;-76
2023/11/22 01:56:59;;;;;;;8.13;7.50;;;8.60;99.90;;;;;;10289908;28;20196;-77
2023/11/22 02:02:04;;;;;;;8.10;7.50;;;8.60;99.90;;;;;;10287031;28;20232;-77
2023/11/22 02:07:07;;;;;;;8.43;7.83;;;;;;;;;;10290089;28;20226;-76
2023/11/22 02:12:09;;;;;;;7.93;7.43;;;8.40;99.90;;;;;;10292611;28;20219;-77
2023/11/22 02:17:13;;;;;;;7.73;7.13;;;8.30;99.90;;;;;;10283364;28;20196;-76
2023/11/22 02:22:16;;;;;;;8.57;7.83;;;8.20;99.90;;;;;;10315936;28;20230;-76
2023/11/22 02:27:22;;;;;;;7.47;6.97;;;8.20;99.90;;;;;;10293721;28;20277;-76
2023/11/22 02:32:24;;;;;;;8.33;7.73;;;8.20;99.90;;;;;;10294147;28;20265;-76
2023/11/22 02:37:28;;;;;;;7.17;6.67;;;8.10;99.90;;;;;;10303896;28;20604;-77
2023/11/22 02:42:31;;;;;;;7.67;7.17;;;8.10;99.90;;;;;;10294916;28;20223;-76
2023/11/22 02:47:34;;;;;;;7.47;6.87;;;8.10;99.90;;;;;;10265461;28;20223;-76
2023/11/22 02:52:37;;;;;;;6.70;6.30;;;8.10;99.90;;;;;;10295928;28;20228;-76
2023/11/22 02:57:41;;;;;;;9.23;6.90;;;8.10;99.90;;;;;;10296069;28;20266;-76
2023/11/22 03:02:45;;;;;;;7.37;6.87;;;8.10;99.90;;;;;;10316802;28;20232;-77
2023/11/22 03:07:50;;;;;;;7.30;6.80;;;8.10;99.90;;;;;;10288036;28;20651;-76
2023/11/22 03:12:55;;;;;;;6.90;6.40;;;8.00;99.90;;;;;;10283353;28;20298;-76
2023/11/22 03:17:58;;;;;;;7.00;6.40;;;7.90;99.90;;;;;;10270466;28;20223;-77
2023/11/22 03:23:02;;;;;;;7.20;6.70;;;7.90;99.90;;;;;;10288308;28;20236;-76
2023/11/22 03:28:06;;;;;;;7.80;7.20;;;7.80;99.90;;;;;;10287687;28;20200;-76
2023/11/22 03:33:10;;;;;;;6.93;6.43;;;7.80;99.90;;;;;;10270303;28;20251;-76
2023/11/22 03:38:12;;;;;;;6.57;6.07;;;7.80;99.90;;;;;;10255908;28;20342;-76
2023/11/22 03:43:16;;;;;;;6.57;6.07;;;7.70;99.90;;;;;;10269831;28;20224;-76
2023/11/22 03:48:18;;;;;;;7.07;6.57;;;7.70;99.90;;;;;;10272755;28;20670;-76
2023/11/22 03:53:21;;;;;;;7.83;7.23;;;7.60;99.90;;;;;;10255233;28;20275;-76
2023/11/22 03:58:25;;;;;;;7.27;6.67;;;7.60;99.90;;;;;;10285065;28;20293;-76
2023/11/22 04:03:28;;;;;;;6.50;6.00;;;7.60;99.90;;;;;;10286880;28;20200;-76
2023/11/22 04:08:31;;;;;;;6.70;6.20;;;7.70;99.90;;;;;;10248729;28;20227;-76
2023/11/22 04:13:35;;;;;;;6.90;6.37;;;7.70;99.90;;;;;;10285162;28;20204;-76
2023/11/22 04:18:37;;;;;;;7.50;6.90;;;7.70;99.90;;;;;;10290230;28;20286;-76
2023/11/22 04:23:39;;;;;;;7.03;6.33;;;7.70;99.90;;;;;;10262305;28;20248;-76
2023/11/22 04:28:43;;;;;;;6.90;6.30;;;7.70;99.90;;;;;;10291452;28;20224;-76
2023/11/22 04:33:45;;;;;;;7.30;6.70;;;7.80;99.90;;;;;;10277174;28;20247;-76
2023/11/22 04:38:50;;;;;;;7.23;6.63;;;7.80;99.90;;;;;;10257483;28;20303;-77
2023/11/22 04:43:54;;;;;;;7.47;6.97;;;7.80;99.90;;;;;;10290529;28;20670;-76
2023/11/22 04:48:57;;;;;;;6.93;6.33;;;7.80;99.90;;;;;;10276291;28;20227;-77
2023/11/22 04:53:59;;;;;;;7.13;6.63;;;7.80;99.90;;;;;;10259015;28;20263;-76
2023/11/22 04:59:03;;;;;;;6.87;6.17;;;7.80;99.90;;;;;;10286719;28;20223;-76
2023/11/22 05:04:06;;;;;;;7.60;7.07;;;7.80;99.90;;;;;;10288107;28;20208;-76
2023/11/22 05:09:09;;;;;;;7.57;7.00;;;7.80;99.90;;;;;;10256073;28;20220;-76
2023/11/22 05:14:13;;;;;;;6.63;6.13;;;7.70;99.90;;;;;;10287998;28;20195;-76
2023/11/22 05:19:16;;;;;;;7.20;6.50;;;7.70;99.90;;;;;;10260163;28;20228;-76
2023/11/22 05:24:18;;;;;;;6.17;5.67;;;7.70;99.90;;;;;;10288141;28;20200;-76
2023/11/22 05:29:22;;;;;;;6.87;6.33;;;7.60;99.90;;;;;;10292057;28;20753;-76
2023/11/22 05:34:24;;;;;;;6.77;6.27;;;7.70;99.90;;;;;;10257406;28;20197;-76
2023/11/22 05:39:26;;;;;;;6.97;6.37;;;7.70;99.90;;;;;;10252859;28;20756;-77
2023/11/22 05:44:30;;;;;;;6.33;5.80;;;7.70;99.90;;;;;;10281264;28;20247;-77
2023/11/22 05:49:32;;;;;;;7.10;6.50;;;7.70;99.90;;;;;;10291629;28;20711;-77
2023/11/22 05:54:35;;;;;;;6.17;5.67;;;7.60;99.90;;;;;;10289496;28;20626;-77
2023/11/22 05:59:38;;;;;;;6.67;6.07;;;7.60;99.90;;;;;;10289024;28;20227;-77
2023/11/22 06:04:41;;;;;;;6.00;5.57;;;7.60;99.90;;;;;;10292003;28;20203;-77
2023/11/22 06:09:44;;;;;;;6.40;5.90;;;7.60;99.90;;;;;;10292970;28;20283;-78
2023/11/22 06:14:48;;;;;;;5.87;5.40;;;7.60;99.90;;;;;;10295844;28;20200;-77
2023/11/22 06:19:50;;;;;;;6.20;5.70;;;7.60;99.90;;;;;;10324106;28;20223;-77
2023/11/22 06:24:53;;;;;;;5.43;5.03;;;7.60;99.90;;;;;;10297714;28;20251;-78
2023/11/22 06:29:57;;;;;;;5.83;5.40;;;7.60;99.90;;;;;;10295576;28;20645;-77
2023/11/22 06:34:59;;;;;;;6.10;5.60;;;7.50;99.90;;;;;;10316353;28;20187;-77
2023/11/22 06:40:02;;;;;;;6.33;5.83;;;7.50;99.90;;;;;;10309489;28;20653;-77
2023/11/22 06:45:09;;;;;;;6.23;5.73;;;7.50;99.90;;;;;;10273486;28;20200;-77
2023/11/22 06:50:12;;;;;;;6.07;5.60;;;7.50;99.90;;;;;;10318540;28;20230;-77
2023/11/22 06:55:14;;;;;;;5.47;5.17;;;7.40;99.90;;;;;;10285006;28;20599;-77
2023/11/22 07:00:20;;;;;;;6.23;5.63;;;7.50;99.90;;;;;;10289096;28;20224;-77
2023/11/22 07:05:22;;;;;;;7.33;6.07;;;7.50;99.90;;;;;;10286079;28;20571;-77
2023/11/22 07:10:24;;;;;;;5.37;4.97;;;7.40;99.90;;;;;;10286117;28;20216;-76
2023/11/22 07:15:29;;;;;;;5.20;4.80;;;7.40;99.90;;;;;;10269940;28;20196;-76
2023/11/22 07:20:31;;;;;;;6.10;5.60;;;7.40;99.90;;;;;;10288063;28;20615;-77
2023/11/22 07:25:33;;;;;;;5.33;4.83;;;7.40;99.90;;;;;;10291154;28;20212;-77
2023/11/22 07:30:40;;;;;;;4.83;4.43;;;7.40;99.90;;;;;;10312536;23;20231;-76
2023/11/22 07:35:43;;;;;;;4.83;4.43;;;7.30;99.90;;;;;;10352949;28;20202;-76
2023/11/22 07:40:45;;;;;;;5.63;4.80;;;7.30;99.90;;;;;;10360650;28;20234;-76
2023/11/22 07:45:50;;;;;;;4.90;4.50;;;7.20;99.90;;;;;;10330343;28;20208;-76
2023/11/22 07:50:53;;;;;;;5.03;4.67;;;7.20;99.90;;;;;;10316931;28;20211;-77
2023/11/22 07:55:56;;;;;;;7.80;5.57;;;7.10;99.90;;;;;;10334854;28;20207;-76
2023/11/22 08:01:06;;;;;;;6.87;4.40;;;7.20;99.90;;;;;;10335355;28;20712;-76
2023/11/22 08:06:08;;;;;;;5.70;5.20;;;7.20;99.90;;;;;;10346856;28;20199;-77
2023/11/22 08:11:14;;;;;;;5.40;5.00;;;7.10;99.90;;;;;;10342179;28;20271;-76
2023/11/22 08:16:19;;;;;;;4.83;4.30;;;7.00;99.90;;;;;;10325421;28;20207;-76
2023/11/22 08:21:23;;;;;;;5.37;4.87;;;7.00;99.90;;;;;;10299758;28;20223;-76
2023/11/22 08:26:25;;;;;;;6.67;4.60;;;6.90;99.90;;;;;;10318951;28;20207;-77
2023/11/22 08:31:30;;;;;;;5.20;4.80;;;7.00;99.90;;;;;;10319325;28;20237;-76
2023/11/22 08:36:33;;;;;;;5.70;5.23;;;6.90;99.90;;;;;;10332784;28;20204;-77
2023/11/22 08:41:37;;;;;;;4.57;4.27;;;6.90;99.90;;;;;;10325908;28;20290;-76
2023/11/22 08:46:45;;;;;;;4.90;4.53;;;6.90;99.90;;;;;;10316706;28;20204;-76
2023/11/22 08:51:48;;;;;;;5.20;4.80;;;6.90;99.90;;;;;;10324622;28;20272;-76
2023/11/22 08:56:50;;;;;;;6.33;5.73;;;6.80;99.90;;;;;;10323198;28;20621;-76
2023/11/22 09:01:54;;;;;;;5.57;5.07;;;6.80;99.90;;;;;;10310515;28;21758;-76
2023/11/22 09:06:57;;;;;;;5.53;5.00;;;6.80;99.90;;;;;;10319803;28;20204;-77
2023/11/22 09:11:59;;;;;;;7.50;5.80;;;6.90;99.90;;;;;;10335686;28;20266;-76
2023/11/22 09:17:05;;;;;;;6.30;5.40;;;6.90;99.90;;;;;;10331073;28;20555;-77
2023/11/22 09:22:08;;;;;;;6.10;5.50;;;6.90;99.90;;;;;;10317536;28;20721;-77
2023/11/22 09:27:15;;;;;;;5.70;5.10;;;6.90;99.90;;;;;;10313138;28;20331;-77
2023/11/22 09:32:19;;;;;;;5.63;5.20;;;7.00;99.90;;;;;;10334182;28;20473;-76
2023/11/22 09:37:21;;;;;;;8.30;4.97;;;7.00;99.90;;;;;;10330488;28;20743;-76
2023/11/22 09:42:24;;;;;;;5.33;4.93;;;7.10;99.90;;;;;;10340702;28;20734;-77
2023/11/22 09:47:29;;;;;;;8.73;5.10;;;7.10;99.90;;;;;;10336001;28;20234;-76
2023/11/22 09:52:35;;;;;;;5.60;5.10;;;7.10;99.90;;;;;;10330374;28;20226;-77
2023/11/22 09:57:40;;;;;;;5.90;5.40;;;7.10;99.90;;;;;;10333406;28;20586;-76
2023/11/22 10:02:44;;;;;;;5.43;5.00;;;7.10;99.90;;;;;;10310790;28;20234;-76
2023/11/22 10:07:47;;;;;;;7.07;6.47;;;7.10;99.90;;;;;;10335077;28;20203;-76
2023/11/22 10:12:50;;;;;;;6.57;5.83;;;7.10;99.90;;;;;;10333624;28;20716;-77
2023/11/22 10:17:58;;;;;;;6.23;5.63;;;7.20;99.90;;;;;;10331304;28;20617;-75
2023/11/22 10:23:01;;;;;;;6.60;5.90;;;7.10;99.90;;;;;;10342953;28;20231;-76
2023/11/22 10:28:03;;;;;;;6.47;5.80;;;7.10;99.90;;;;;;10321249;28;20237;-76
2023/11/22 10:33:07;;;;;;;7.23;6.53;;;7.10;99.90;;;;;;10329382;28;20632;-76
2023/11/22 10:38:10;;;;;;;7.17;6.23;;;7.10;99.90;;;;;;10348835;28;20202;-76
2023/11/22 10:43:13;;;;;;;7.30;6.70;;;7.20;99.90;;;;;;10317877;28;20226;-77
2023/11/22 10:48:17;;;;;;;7.17;6.57;;;7.20;99.90;;;;;;10342372;28;20206;-76
2023/11/22 10:53:25;;;;;;;8.60;5.67;;;7.30;99.90;;;;;;10345402;28;20215;-76
2023/11/22 10:58:32;;;;;;;7.13;6.53;;;7.40;99.90;;;;;;10342418;28;20218;-77
2023/11/22 11:03:41;;;;;;;6.80;6.10;;;7.40;99.90;;;;;;10334177;28;20227;-76
2023/11/22 11:08:46;;;;;;;7.00;6.40;;;7.50;99.90;;;;;;10338210;28;20198;-76
2023/11/22 11:13:49;;;;;;;6.80;6.23;;;7.60;99.90;;;;;;10339419;28;20203;-77
2023/11/22 11:18:54;;;;;;;7.33;6.63;;;7.60;99.90;;;;;;10339290;28;20206;-76
2023/11/22 11:24:02;;;;;;;7.13;6.43;;;7.50;99.90;;;;;;10351262;28;20223;-76
2023/11/22 11:29:06;;;;;;;7.20;6.60;;;7.40;99.90;;;;;;10348170;28;20630;-77
2023/11/22 11:34:11;;;;;;;7.97;7.27;;;7.40;99.90;;;;;;10347769;28;20203;-77
2023/11/22 11:39:15;;;;;;;7.40;6.63;;;7.40;99.90;;;;;;10347157;28;20230;-77
2023/11/22 11:44:19;;;;;;;8.03;7.33;;;7.40;99.90;;;;;;10319047;28;20298;-76
2023/11/22 11:49:23;;;;;;;7.40;6.70;;;7.40;99.90;;;;;;10331042;28;20715;-76
2023/11/22 11:54:26;;;;;;;8.40;7.60;;;7.40;99.90;;;;;;10326886;28;20206;-77
2023/11/22 11:59:29;;;;;;;7.93;7.23;;;7.40;99.90;;;;;;10321248;28;20743;-77
2023/11/22 12:04:33;;;;;;;8.10;7.40;;;7.30;99.90;;;;;;10322943;28;20655;-76
2023/11/22 12:09:36;;;;;;;8.13;7.33;;;7.30;99.90;;;;;;10351378;28;20229;-77
2023/11/22 12:14:38;;;;;;;9.43;8.23;;;7.30;99.90;;;;;;10315154;28;20214;-77
2023/11/22 12:19:42;;;;;;;8.63;6.97;;;7.30;99.90;;;;;;10340576;28;20711;-77
2023/11/22 12:24:44;;;;;;;7.40;6.70;;;7.30;99.90;;;;;;10353417;28;20694;-77
2023/11/22 12:29:47;;;;;;;7.33;6.73;;;7.30;99.90;;;;;;10354609;28;20291;-77
2023/11/22 12:34:52;;;;;;;7.37;6.77;;;7.30;99.90;;;;;;10354968;28;20253;-76
2023/11/22 12:39:56;;;;;;;7.80;7.00;;;7.30;99.90;;;;;;10343282;28;20222;-77
2023/11/22 12:44:58;;;;;;;7.87;7.27;;;7.30;99.90;;;;;;10364621;28;20194;-77
2023/11/22 12:50:02;;;;;;;7.40;6.70;;;7.30;99.90;;;;;;10348455;28;20281;-77
2023/11/22 12:55:07;;;;;;;7.53;6.93;;;7.30;99.90;;;;;;10365579;28;20245;-77
2023/11/22 13:00:11;;;;;;;7.43;6.73;;;7.40;99.90;;;;;;10348457;28;20206;-76
2023/11/22 13:05:16;;;;;;;9.57;7.37;;;7.30;99.90;;;;;;10346096;28;20202;-76
2023/11/22 13:10:24;;;;;;;7.57;6.60;;;7.40;99.90;;;;;;10366592;28;20215;-76
2023/11/22 13:15:26;;;;;;;7.30;6.63;;;7.30;99.90;;;;;;10365258;28;20198;-77
2023/11/22 13:20:30;;;;;;;7.70;7.10;;;7.30;99.90;;;;;;10334198;28;20245;-76
2023/11/22 13:25:33;;;;;;;7.33;6.73;;;7.30;99.90;;;;;;10350443;28;20207;-77
2023/11/22 13:30:35;;;;;;;7.80;7.10;;;7.40;99.90;;;;;;10380851;23;20243;-79
2023/11/22 13:35:39;;;;;;;11.90;8.40;;;7.40;99.90;;;;;;10344187;28;20211;-79
2023/11/22 13:40:45;;;;;;;8.17;6.70;;;7.30;99.90;;;;;;10358359;28;20237;-79
2023/11/22 13:45:47;;;;;;;7.57;6.90;;;7.30;99.90;;;;;;10374860;28;20207;-79
2023/11/22 13:50:51;;;;;;;7.77;7.03;;;7.30;99.90;;;;;;10365933;28;20226;-79
2023/11/22 13:55:55;;;;;;;8.70;7.40;;;7.20;99.90;;;;;;10366124;28;20194;-78
2023/11/22 14:00:59;;;;;;;7.27;6.40;;;7.20;99.90;;;;;;10372778;28;20264;-79
2023/11/22 14:06:04;;;;;;;8.03;6.57;;;7.20;99.90;;;;;;10378239;28;20321;-79
2023/11/22 14:11:07;;;;;;;7.83;7.07;;;7.20;99.90;;;;;;10370245;28;20260;-79
2023/11/22 14:16:09;;;;;;;8.40;7.70;;;7.30;99.90;;;;;;10342323;28;20688;-80
2023/11/22 14:21:13;;;;;;;8.30;7.50;;;7.30;99.90;;;;;;10346571;28;20250;-79
2023/11/22 14:26:15;;;;;;;8.30;7.50;;;7.30;99.90;;;;;;10321814;28;20204;-79
2023/11/22 14:31:18;;;;;;;7.80;7.07;;;7.20;99.90;;;;;;10342391;28;20798;-80
2023/11/22 14:36:21;;;;;;;7.17;6.57;;;7.20;99.90;;;;;;10347647;28;20200;-79
2023/11/22 14:41:24;;;;;;;7.73;7.10;;;7.20;99.90;;;;;;10332849;28;20234;-79
2023/11/22 14:46:26;;;;;;;7.57;6.67;;;7.20;99.90;;;;;;10338678;28;20206;-79
2023/11/22 14:51:30;;;;;;;7.67;6.97;;;7.20;99.90;;;;;;10328314;28;20230;-79
2023/11/22 14:56:33;;;;;;;8.60;7.80;;;7.20;99.90;;;;;;10327810;28;20253;-79
2023/11/22 15:01:36;;;;;;;8.00;7.20;;;7.10;99.90;;;;;;10343109;28;20646;-80
2023/11/22 15:06:40;;;;;;;8.70;8.00;;;7.10;99.90;;;;;;10348198;28;20219;-80
2023/11/22 15:11:42;;;;;;;7.90;7.20;;;7.10;99.90;;;;;;10337997;28;20219;-80
2023/11/22 15:16:44;;;;;;;7.60;6.90;;;7.10;99.90;;;;;;10335673;28;20242;-80
2023/11/22 15:21:48;;;;;;;8.87;8.17;;;7.10;99.70;;;;;;10343885;28;20751;-79
2023/11/22 15:26:51;;;;;;;8.83;7.93;;;7.10;99.00;;;;;;10350561;28;20230;-79
2023/11/22 15:31:54;;;;;;;8.77;7.97;;;7.00;99.90;;;;;;10341294;28;20230;-80
2023/11/22 15:36:58;;;;;;;8.57;7.87;;;6.90;98.90;;;;;;10324294;28;20653;-80
2023/11/22 15:42:00;;;;;;;8.60;7.90;;;6.80;99.80;;;;;;10335880;28;20239;-79
2023/11/22 15:47:08;;;;;;;8.30;7.60;;;6.80;99.90;;;;;;10317994;28;20198;-80
2023/11/22 15:52:12;;;;;;;9.20;7.97;;;6.80;99.90;;;;;;10350911;28;20250;-80
2023/11/22 15:57:15;;;;;;;7.87;7.27;;;6.90;99.90;;;;;;10324252;28;20198;-79
2023/11/22 16:02:17;;;;;;;7.47;6.87;;;6.90;99.90;;;;;;10356116;28;20642;-79
2023/11/22 16:07:21;;;;;;;8.00;7.30;;;6.90;99.90;;;;;;10349119;28;20198;-79
2023/11/22 16:12:23;;;;;;;8.97;8.17;;;6.90;99.90;;;;;;10322072;28;20695;-79
2023/11/22 16:17:26;;;;;;;8.27;7.50;;;6.90;99.90;;;;;;10338421;28;20249;-79
2023/11/22 16:22:30;;;;;;;8.80;8.00;;;7.00;99.90;;;;;;10346164;28;20277;-79
2023/11/22 16:27:32;;;;;;;9.23;8.40;;;7.00;99.90;;;;;;10354003;28;20199;-79
2023/11/22 16:32:35;;;;;;;9.37;8.50;;;7.00;99.90;;;;;;10346368;28;20231;-79
2023/11/22 16:37:40;;;;;;;9.70;8.80;;;7.00;99.90;;;;;;10343555;28;20263;-79
2023/11/22 16:42:43;;;;;;;8.47;7.77;;;7.00;99.90;;;;;;10349988;28;20250;-80
2023/11/22 16:47:46;;;;;;;8.70;7.90;;;7.00;99.90;;;;;;10348240;28;20234;-79
2023/11/22 16:52:50;;;;;;;9.30;8.50;;;7.00;99.90;;;;;;10338524;28;20220;-79
2023/11/22 16:57:53;;;;;;;9.70;8.90;;;7.10;99.90;;;;;;10344857;28;20205;-78
2023/11/22 17:02:59;;;;;;;8.73;8.03;;;7.00;99.90;;;;;;10335081;28;20230;-79
2023/11/22 17:08:03;;;;;;;8.70;7.80;;;7.00;99.90;;;;;;10344847;28;20211;-79
2023/11/22 17:13:06;;;;;;;10.37;9.43;;;7.00;99.90;;;;;;10347153;28;20227;-79
2023/11/22 17:18:09;;;;;;;9.87;9.07;;;7.00;99.90;;;;;;10343431;28;20203;-79
2023/11/22 17:23:12;;;;;;;9.43;8.53;;;7.00;99.90;;;;;;10335558;28;20222;-79
2023/11/22 17:28:15;;;;;;;9.00;8.30;;;7.00;99.90;;;;;;10354645;28;20218;-79
2023/11/22 17:33:17;;;;;;;8.70;7.90;;;7.00;99.90;;;;;;10346821;28;20219;-79
2023/11/22 17:38:21;;;;;;;8.67;7.97;;;7.00;99.90;;;;;;10324064;28;20192;-78
2023/11/22 17:43:24;;;;;;;8.57;7.77;;;6.90;99.90;;;;;;10308747;28;20238;-79
2023/11/22 17:48:26;;;;;;;9.13;8.23;;;6.90;99.90;;;;;;10361442;28;20249;-78
2023/11/22 17:53:30;;;;;;;11.70;10.60;;;6.90;99.70;;;;;;10358960;28;20227;-79
2023/11/22 17:58:34;;;;;;;11.63;10.73;;;6.90;98.90;;;;;;10345298;28;20222;-77
2023/11/22 18:03:36;;;;;;;9.33;8.57;;;6.90;99.80;;;;;;10311812;28;20227;-77
2023/11/22 18:08:40;;;;;;;9.53;8.73;;;6.90;99.80;;;;;;10334342;28;20203;-77
2023/11/22 18:13:43;;;;;;;7.83;7.20;;;6.90;98.80;;;;;;10327979;28;20249;-77
2023/11/22 18:18:45;;;;;;;8.17;7.57;;;6.90;98.80;;;;;;10347149;28;20202;-78
2023/11/22 18:23:49;;;;;;;9.60;8.90;;;6.80;99.40;;;;;;10341331;28;20806;-77
2023/11/22 18:28:52;;;;;;;9.10;8.33;;;6.80;99.30;;;;;;10344217;28;20199;-77
2023/11/22 18:33:54;;;;;;;8.07;7.37;;;6.80;99.60;;;;;;10318998;28;20226;-77
2023/11/22 18:38:58;;;;;;;9.87;7.83;;;6.80;99.70;;;;;;10340892;28;20203;-77
2023/11/22 18:44:01;;;;;;;8.57;7.87;;;6.90;98.90;;;;;;10332798;28;20672;-77
2023/11/22 18:49:03;;;;;;;8.70;7.90;;;6.80;99.80;;;;;;10333399;28;20245;-77
2023/11/22 18:54:10;;;;;;;9.30;8.50;;;6.80;99.70;;;;;;10331737;28;20214;-77
2023/11/22 18:59:13;;;;;;;8.90;8.17;;;6.80;99.60;;;;;;10324670;28;20207;-77
2023/11/22 19:04:16;;;;;;;10.10;9.20;;;6.80;98.90;;;;;;10336196;28;20689;-78
2023/11/22 19:09:20;;;;;;;9.37;8.67;;;6.80;99.20;;;;;;10329186;28;20595;-77
2023/11/22 19:14:25;;;;;;;8.10;7.40;;;6.80;99.10;;;;;;10326932;28;20199;-77
2023/11/22 19:19:27;;;;;;;9.10;8.20;;;6.80;99.50;;;;;;10307651;28;20226;-78
2023/11/22 19:24:31;;;;;;;8.97;8.17;;;6.70;99.20;;;;;;10310227;28;20263;-77
2023/11/22 19:29:33;;;;;;;9.10;8.30;;;6.70;99.50;;;;;;10317385;28;20231;-78
2023/11/22 19:34:36;;;;;;;10.07;9.10;;;6.70;99.90;;;;;;10331485;28;20203;-78
2023/11/22 19:39:41;;;;;;;8.50;7.80;;;6.70;99.10;;;;;;10330408;28;20239;-78
2023/11/22 19:44:43;;;;;;;9.73;8.93;;;6.70;98.20;;;;;;10336986;28;20220;-77
2023/11/22 19:49:46;;;;;;;9.90;9.00;;;6.70;98.60;;;;;;10322815;28;20322;-78
2023/11/22 19:54:49;;;;;;;10.30;9.40;;;6.70;99.20;;;;;;10318907;28;20685;-77
2023/11/22 19:59:52;;;;;;;10.87;9.77;;;6.70;99.00;;;;;;10319617;28;20218;-77
2023/11/22 20:04:54;;;;;;;10.40;9.50;;;6.70;99.40;;;;;;10335003;28;20226;-78
2023/11/22 20:09:58;;;;;;;10.23;9.30;;;6.70;99.60;;;;;;10322322;28;21013;-78
2023/11/22 20:15:00;;;;;;;11.30;10.30;;;6.70;99.90;;;;;;10328390;28;20575;-77
2023/11/22 20:20:04;;;;;;;11.37;10.40;;;6.70;99.40;;;;;;10323289;28;20225;-78
2023/11/22 20:25:09;;;;;;;11.40;10.23;;;6.70;98.90;;;;;;10320467;28;20235;-77
2023/11/22 20:30:12;;;;;;;11.40;10.40;;;6.70;99.90;;;;;;10304546;28;20233;-75
2023/11/22 20:35:15;;;;;;;11.87;10.43;;;6.70;99.20;;;;;;10323325;28;20210;-76
2023/11/22 20:40:18;;;;;;;11.43;10.47;;;6.60;99.10;;;;;;10323227;28;20222;-76
2023/11/22 20:45:21;;;;;;;11.47;10.47;;;6.60;99.60;;;;;;10328079;28;20219;-76
2023/11/22 20:50:25;;;;;;;12.73;11.53;;;6.60;99.70;;;;;;10324904;28;20715;-76
2023/11/22 20:55:28;;;;;;;11.43;10.53;;;6.50;99.50;;;;;;10328515;28;20704;-75
2023/11/22 21:00:31;;;;;;;12.70;11.50;;;6.40;99.90;;;;;;10330560;28;20238;-76
2023/11/22 21:05:33;;;;;;;11.93;10.73;;;6.30;99.60;;;;;;10333936;28;20689;-76
2023/11/22 21:10:37;;;;;;;11.60;10.60;;;6.30;99.90;;;;;;10324551;28;20709;-74
2023/11/22 21:15:40;;;;;;;11.53;10.53;;;6.10;97.30;;;;;;10343261;28;20200;-77
2023/11/22 21:20:42;;;;;;;11.50;10.40;;;5.90;98.60;;;;;;10323893;28;20230;-77
2023/11/22 21:25:46;;;;;;;11.27;10.30;;;5.70;99.70;;;;;;10329888;28;20242;-78
2023/11/22 21:30:48;;;;;;;11.03;9.67;;;5.50;99.10;;;;;;10331769;28;20716;-78
2023/11/22 21:35:51;;;;;;;12.57;11.27;;;5.30;99.50;;;;;;10332839;28;20265;-75
2023/11/22 21:40:54;;;;;;;13.40;12.20;;;5.10;99.70;;;;;;10315394;28;20273;-77
2023/11/22 21:45:57;;;;;;;12.30;11.30;;;4.90;98.70;;;;;;10334886;28;20681;-78
2023/11/22 21:50:59;;;;;;;14.33;12.93;;;4.70;99.30;;;;;;10317339;28;20751;-77
2023/11/22 21:56:05;;;;;;;13.70;12.37;;;4.60;99.20;;;;;;10342714;28;20237;-77
2023/11/22 22:01:11;;;;;;;14.20;12.90;;;4.50;99.00;;;;;;10319587;28;20219;-76
2023/11/22 22:06:18;;;;;;;13.20;12.00;;;4.30;99.30;;;;;;10334355;28;20215;-77
2023/11/22 22:11:22;;;;;;;12.67;11.47;;;4.20;99.20;;;;;;10318426;28;20219;-77
2023/11/22 22:16:25;;;;;;;15.47;14.00;;;4.00;99.30;;;;;;10330344;28;20254;-74
2023/11/22 22:21:28;;;;;;;13.37;12.17;;;3.90;99.40;;;;;;10329362;28;20227;-75
2023/11/22 22:26:31;;;;;;;16.37;14.70;;;3.80;99.60;;;;;;10329192;28;20223;-75
2023/11/22 22:31:37;;;;;;;16.00;14.50;;;3.70;99.80;;;;;;10313924;28;20234;-77
2023/11/22 22:36:40;;;;;;;14.20;12.70;;;3.70;99.90;;;;;;10325323;28;20277;-78
2023/11/22 22:41:43;;;;;;;13.70;12.37;;;3.60;99.90;;;;;;10344282;28;20233;-77
2023/11/22 22:46:46;;;;;;;14.80;13.33;;;3.60;99.90;;;;;;10333481;28;20219;-77
2023/11/22 22:51:48;;;;;;;15.07;13.67;;;3.70;99.90;;;;;;10351204;28;20227;-77
2023/11/22 22:56:52;;;;;;;14.77;13.47;;;3.70;99.90;;;;;;10339081;28;20680;-76
2023/11/22 23:01:56;;;;;;;14.73;13.40;;;3.80;99.90;;;;;;10349175;28;20214;-77
2023/11/22 23:06:59;;;;;;;13.90;12.70;;;3.80;99.90;;;;;;10333716;28;20225;-78
2023/11/22 23:12:03;;;;;;;13.43;12.23;;;4.00;99.90;;;;;;10329707;28;20222;-78
2023/11/22 23:17:06;;;;;;;13.00;11.90;;;4.10;99.90;;;;;;10316656;28;20684;-78
2023/11/22 23:22:08;;;;;;;13.23;12.10;;;4.30;99.90;;;;;;10350576;28;20219;-77
2023/11/22 23:27:12;;;;;;;13.70;12.50;;;4.40;99.90;;;;;;10346669;28;20211;-77
2023/11/22 23:32:14;;;;;;;14.23;12.93;;;4.40;99.90;;;;;;10348655;28;20753;-79
2023/11/22 23:37:17;;;;;;;13.70;12.50;;;4.40;99.90;;;;;;10351436;28;20202;-78
2023/11/22 23:42:21;;;;;;;13.67;12.50;;;4.50;99.90;;;;;;10338045;28;20650;-78
2023/11/22 23:47:23;;;;;;;14.63;13.33;;;4.40;99.90;;;;;;10323993;28;20228;-78
2023/11/22 23:52:25;;;;;;;14.93;13.63;;;4.40;99.90;;;;;;10328562;28;20222;-78
2023/11/22 23:57:30;;;;;;;14.27;12.97;;;4.30;99.90;;;;;;10357245;28;20203;-78
